Time;durP1;ratioP1;P1;durP2;ratioP2;P2;SDS_P1;SDS_P2;PMS_P1;PMS_P2;Temp;Humidity;BMP_temperature;BMP_pressure;BME280_temperature;BME280_humidity;BME280_pressure;Samples;Min_cycle;Max_cycle;Signal;HPM_P1;HPM_P2
2021/10/19 00:00:54;;;;;;;42.30;22.85;;;9.50;99.90;;;;;;5095345;28;20119;-59
2021/10/19 00:03:20;;;;;;;39.63;22.13;;;9.50;99.90;;;;;;5114932;28;20026;-61
2021/10/19 00:05:45;;;;;;;40.00;22.55;;;9.50;99.90;;;;;;5113571;28;20053;-59
2021/10/19 00:08:11;;;;;;;42.55;22.52;;;9.60;99.90;;;;;;5112729;28;20059;-61
2021/10/19 00:10:37;;;;;;;39.67;22.58;;;9.60;99.90;;;;;;5113423;28;20020;-59
2021/10/19 00:13:03;;;;;;;42.70;24.05;;;9.60;99.90;;;;;;5113147;28;20053;-62
2021/10/19 00:15:28;;;;;;;36.47;23.08;;;9.60;99.90;;;;;;5113400;28;20525;-60
2021/10/19 00:17:54;;;;;;;40.45;22.48;;;9.70;99.90;;;;;;5113006;28;20027;-61
2021/10/19 00:20:19;;;;;;;41.80;23.88;;;9.70;99.90;;;;;;5113217;28;20067;-60
2021/10/19 00:22:45;;;;;;;35.40;22.20;;;9.70;99.90;;;;;;5113042;28;20028;-60
2021/10/19 00:25:16;;;;;;;34.22;21.08;;;9.70;99.90;;;;;;5113195;28;20032;-59
2021/10/19 00:27:42;;;;;;;37.90;23.70;;;9.70;99.90;;;;;;5113075;28;20031;-61
2021/10/19 00:30:09;;;;;;;32.72;20.85;;;9.60;99.90;;;;;;5113086;28;20404;-59
2021/10/19 00:32:36;;;;;;;36.05;21.58;;;9.70;99.90;;;;;;5113085;28;20034;-61
2021/10/19 00:35:01;;;;;;;40.10;22.42;;;9.70;99.90;;;;;;5113018;28;20102;-59
2021/10/19 00:37:27;;;;;;;36.97;21.65;;;9.70;99.90;;;;;;5112697;28;20106;-60
2021/10/19 00:39:53;;;;;;;39.95;23.10;;;9.70;99.90;;;;;;5112906;28;20027;-60
2021/10/19 00:42:18;;;;;;;33.95;20.35;;;9.70;99.90;;;;;;5112428;28;20117;-59
2021/10/19 00:44:44;;;;;;;34.45;21.23;;;9.70;99.90;;;;;;5112719;28;20546;-60
2021/10/19 00:47:10;;;;;;;39.78;22.15;;;9.80;99.90;;;;;;5112546;28;20030;-59
2021/10/19 00:49:36;;;;;;;34.53;21.48;;;9.70;99.90;;;;;;5112592;28;20397;-58
2021/10/19 00:52:02;;;;;;;36.15;21.55;;;9.80;99.90;;;;;;5112692;28;20077;-58
2021/10/19 00:54:28;;;;;;;40.33;22.23;;;9.80;99.90;;;;;;5112576;28;20164;-58
2021/10/19 00:56:54;;;;;;;37.35;21.52;;;9.80;99.90;;;;;;5112473;28;20047;-57
2021/10/19 00:59:20;;;;;;;32.42;21.13;;;9.90;99.90;;;;;;5109536;28;20032;-55
2021/10/19 01:01:47;;;;;;;36.65;20.92;;;9.90;99.90;;;;;;5112304;28;20023;-59
2021/10/19 01:04:12;;;;;;;34.03;21.48;;;9.90;99.90;;;;;;5112270;28;20027;-57
2021/10/19 01:06:39;;;;;;;37.25;21.20;;;10.00;99.90;;;;;;5112224;28;20077;-59
2021/10/19 01:09:04;;;;;;;32.05;19.95;;;10.00;99.90;;;;;;5111329;28;20099;-61
2021/10/19 01:11:30;;;;;;;36.20;22.83;;;10.10;99.90;;;;;;5110896;28;20552;-60
2021/10/19 01:13:55;;;;;;;36.15;20.08;;;10.10;99.90;;;;;;5112159;28;20070;-59
2021/10/19 01:16:21;;;;;;;34.83;19.45;;;10.20;99.90;;;;;;5112314;28;20020;-61
2021/10/19 01:18:47;;;;;;;31.48;19.70;;;10.20;99.90;;;;;;5111866;28;20031;-61
2021/10/19 01:21:12;;;;;;;29.70;19.05;;;10.20;99.90;;;;;;5111998;28;20043;-62
2021/10/19 01:23:38;;;;;;;35.92;20.13;;;10.20;99.90;;;;;;5112210;28;20020;-61
2021/10/19 01:26:07;;;;;;;32.53;19.48;;;10.30;99.90;;;;;;5112254;28;20080;-61
2021/10/19 01:28:35;;;;;;;26.20;18.02;;;10.30;99.90;;;;;;5111947;28;20019;-61
2021/10/19 01:31:01;;;;;;;29.85;17.98;;;10.30;99.90;;;;;;5111913;28;20149;-61
2021/10/19 01:33:28;;;;;;;29.73;18.15;;;10.40;99.90;;;;;;5112110;28;20121;-61
2021/10/19 01:35:54;;;;;;;29.38;18.92;;;10.40;99.90;;;;;;5112380;28;20039;-61
2021/10/19 01:38:22;;;;;;;29.25;18.15;;;10.40;99.90;;;;;;5111698;28;20102;-63
2021/10/19 01:40:49;;;;;;;26.83;17.33;;;10.50;99.90;;;;;;5111738;28;20397;-58
2021/10/19 01:43:18;;;;;;;29.48;18.63;;;10.60;99.90;;;;;;5111638;28;20080;-60
2021/10/19 01:45:46;;;;;;;25.60;16.65;;;10.60;99.90;;;;;;5111774;28;20459;-60
2021/10/19 01:48:12;;;;;;;26.88;17.48;;;10.60;99.90;;;;;;5111447;28;20041;-58
2021/10/19 01:50:38;;;;;;;26.30;16.88;;;10.60;99.90;;;;;;5111560;28;20032;-58
2021/10/19 01:53:08;;;;;;;25.13;16.98;;;10.60;99.90;;;;;;5111146;27;20026;-60
2021/10/19 01:55:34;;;;;;;23.45;15.60;;;10.60;99.90;;;;;;5111866;28;20404;-60
2021/10/19 01:58:00;;;;;;;27.88;16.55;;;10.70;99.90;;;;;;5111464;28;20102;-58
2021/10/19 02:00:25;;;;;;;25.67;17.20;;;10.70;99.90;;;;;;5111399;28;20425;-61
2021/10/19 02:02:51;;;;;;;28.30;16.42;;;10.70;99.90;;;;;;5111361;28;20028;-62
2021/10/19 02:05:17;;;;;;;25.77;16.65;;;10.80;99.90;;;;;;5111315;28;20252;-60
2021/10/19 02:07:42;;;;;;;26.25;16.48;;;10.70;99.90;;;;;;5110615;28;20031;-61
2021/10/19 02:10:09;;;;;;;25.65;16.30;;;10.80;99.90;;;;;;5111056;28;20070;-61
2021/10/19 02:12:35;;;;;;;28.95;17.98;;;10.80;99.90;;;;;;5111254;28;20557;-60
2021/10/19 02:15:02;;;;;;;28.17;17.63;;;10.80;99.90;;;;;;5111321;28;20094;-59
2021/10/19 02:17:27;;;;;;;27.88;16.90;;;10.80;99.90;;;;;;5110904;28;20028;-60
2021/10/19 02:19:53;;;;;;;26.15;16.77;;;10.80;99.90;;;;;;5111099;28;20068;-61
2021/10/19 02:22:19;;;;;;;29.23;17.33;;;10.80;99.90;;;;;;5111169;28;20476;-61
2021/10/19 02:24:44;;;;;;;26.45;17.65;;;10.80;99.90;;;;;;5111204;28;20024;-59
2021/10/19 02:27:10;;;;;;;27.92;17.40;;;10.80;99.90;;;;;;5111006;28;20266;-59
2021/10/19 02:29:35;;;;;;;28.58;16.90;;;10.80;99.90;;;;;;5111287;28;20059;-60
2021/10/19 02:32:01;;;;;;;26.88;17.80;;;10.80;99.90;;;;;;5111055;28;20032;-61
2021/10/19 02:34:27;;;;;;;28.20;18.35;;;10.80;99.90;;;;;;5111144;28;20070;-61
2021/10/19 02:36:53;;;;;;;27.20;17.55;;;10.80;99.90;;;;;;5111219;28;20020;-61
2021/10/19 02:39:19;;;;;;;28.90;17.50;;;10.80;99.90;;;;;;5110761;28;20489;-60
2021/10/19 02:41:44;;;;;;;27.10;17.55;;;10.80;99.90;;;;;;5110873;28;20091;-61
2021/10/19 02:44:10;;;;;;;29.30;18.10;;;10.70;99.90;;;;;;5110995;28;20100;-60
2021/10/19 02:46:36;;;;;;;34.63;18.00;;;10.70;99.90;;;;;;5110997;28;20028;-60
2021/10/19 02:49:04;;;;;;;31.25;19.75;;;10.70;99.90;;;;;;5110670;28;20573;-61
2021/10/19 02:51:30;;;;;;;28.13;18.77;;;10.70;99.90;;;;;;5110997;28;20384;-61
2021/10/19 02:53:56;;;;;;;33.72;19.27;;;10.70;99.90;;;;;;5110988;28;20098;-61
2021/10/19 02:56:22;;;;;;;31.58;19.77;;;10.70;99.90;;;;;;5111092;28;20058;-59
2021/10/19 02:58:48;;;;;;;30.60;19.80;;;10.60;99.90;;;;;;5111037;28;20059;-60
2021/10/19 03:01:14;;;;;;;31.33;20.38;;;10.60;99.90;;;;;;5105899;28;20477;-60
2021/10/19 03:03:40;;;;;;;32.42;21.55;;;10.60;99.90;;;;;;5090768;28;20024;-60
2021/10/19 03:06:06;;;;;;;31.92;20.60;;;10.60;99.90;;;;;;5093661;28;20465;-59
2021/10/19 03:08:31;;;;;;;34.20;21.58;;;10.60;99.90;;;;;;5093633;28;20058;-58
2021/10/19 03:10:57;;;;;;;35.05;21.00;;;10.60;99.90;;;;;;5094157;28;20017;-62
2021/10/19 03:13:24;;;;;;;32.83;21.33;;;10.60;99.90;;;;;;5094428;28;20389;-61
2021/10/19 03:15:50;;;;;;;35.45;20.73;;;10.60;99.90;;;;;;5094248;28;20089;-58
2021/10/19 03:18:16;;;;;;;37.90;22.83;;;10.60;99.90;;;;;;5094078;28;20417;-56
2021/10/19 03:20:42;;;;;;;36.50;22.65;;;10.60;99.90;;;;;;5094183;28;20028;-60
2021/10/19 03:23:08;;;;;;;38.40;23.13;;;10.60;99.90;;;;;;5093977;28;20074;-60
2021/10/19 03:25:33;;;;;;;36.58;23.05;;;10.60;99.90;;;;;;5093945;28;20504;-61
2021/10/19 03:27:59;;;;;;;34.30;22.38;;;10.60;99.90;;;;;;5093722;28;20024;-59
2021/10/19 03:30:24;;;;;;;37.50;23.27;;;10.50;99.90;;;;;;5093767;28;20020;-63
2021/10/19 03:32:50;;;;;;;37.53;22.48;;;10.60;99.90;;;;;;5093967;28;20601;-60
2021/10/19 03:35:16;;;;;;;37.25;22.98;;;10.60;99.90;;;;;;5093819;28;20412;-60
2021/10/19 03:37:41;;;;;;;43.88;23.75;;;10.60;99.90;;;;;;5093864;28;20039;-61
2021/10/19 03:40:07;;;;;;;39.33;23.67;;;10.60;99.90;;;;;;5093584;28;20039;-60
2021/10/19 03:42:33;;;;;;;37.90;22.85;;;10.60;99.90;;;;;;5093515;28;20035;-59
2021/10/19 03:44:58;;;;;;;38.63;22.92;;;10.60;99.90;;;;;;5092426;28;20027;-61
2021/10/19 03:47:24;;;;;;;40.65;24.10;;;10.60;99.90;;;;;;5093453;28;20028;-56
2021/10/19 03:49:50;;;;;;;40.60;23.95;;;10.60;99.90;;;;;;5093518;28;20027;-60
2021/10/19 03:52:15;;;;;;;39.97;24.35;;;10.60;99.90;;;;;;5093525;28;20497;-60
2021/10/19 03:54:41;;;;;;;38.53;24.48;;;10.60;99.90;;;;;;5093498;28;20481;-60
2021/10/19 03:57:07;;;;;;;38.58;24.20;;;10.70;99.90;;;;;;5093151;28;20060;-60
2021/10/19 03:59:33;;;;;;;40.97;25.10;;;10.70;99.90;;;;;;5093523;28;20020;-60
2021/10/19 04:01:59;;;;;;;44.78;25.23;;;10.70;99.90;;;;;;5104506;28;20112;-57
2021/10/19 04:04:25;;;;;;;44.70;25.70;;;10.80;99.90;;;;;;5113656;28;20106;-59
2021/10/19 04:06:50;;;;;;;44.30;25.77;;;10.80;99.90;;;;;;5113148;28;20023;-54
2021/10/19 04:09:16;;;;;;;41.70;23.23;;;10.80;99.90;;;;;;5113304;28;20437;-57
2021/10/19 04:11:42;;;;;;;45.65;24.40;;;10.80;99.90;;;;;;5113468;28;20027;-61
2021/10/19 04:14:07;;;;;;;38.42;23.92;;;10.80;99.90;;;;;;5113558;28;20029;-62
2021/10/19 04:16:34;;;;;;;39.25;24.65;;;10.80;99.90;;;;;;5113040;28;20027;-61
2021/10/19 04:19:00;;;;;;;45.08;25.42;;;10.80;99.90;;;;;;5113267;28;20016;-61
2021/10/19 04:21:26;;;;;;;42.45;26.60;;;10.80;99.90;;;;;;5113165;28;20034;-61
2021/10/19 04:23:52;;;;;;;42.33;24.73;;;10.80;99.90;;;;;;5113409;28;20360;-60
2021/10/19 04:26:17;;;;;;;47.08;27.20;;;10.80;99.90;;;;;;5113341;28;20481;-61
2021/10/19 04:28:44;;;;;;;51.95;26.02;;;10.70;99.90;;;;;;5113034;28;20034;-61
2021/10/19 04:31:10;;;;;;;45.65;27.95;;;10.70;99.90;;;;;;5112998;28;20024;-60
2021/10/19 04:33:35;;;;;;;49.97;28.67;;;10.70;99.90;;;;;;5113222;28;20079;-62
2021/10/19 04:36:04;;;;;;;49.25;28.92;;;10.70;99.90;;;;;;5112898;28;20092;-61
2021/10/19 04:38:31;;;;;;;49.25;27.83;;;10.70;99.90;;;;;;5112904;28;20080;-61
2021/10/19 04:40:57;;;;;;;51.83;29.38;;;10.70;99.90;;;;;;5112900;28;20477;-64
2021/10/19 04:43:22;;;;;;;53.80;29.50;;;10.80;99.90;;;;;;5113501;28;20176;-60
2021/10/19 04:45:48;;;;;;;52.92;28.77;;;10.70;99.90;;;;;;5113065;28;20389;-61
2021/10/19 04:48:15;;;;;;;52.15;28.55;;;10.80;99.90;;;;;;5112528;28;20027;-61
2021/10/19 04:50:41;;;;;;;61.85;28.33;;;10.70;99.90;;;;;;5112664;28;20043;-61
2021/10/19 04:53:07;;;;;;;61.38;30.15;;;10.80;99.90;;;;;;5112657;28;20365;-62
2021/10/19 04:55:32;;;;;;;60.67;28.23;;;10.70;99.90;;;;;;5112720;28;20096;-60
2021/10/19 04:57:58;;;;;;;54.60;29.63;;;10.70;99.90;;;;;;5112424;28;20035;-62
2021/10/19 05:00:23;;;;;;;53.53;28.92;;;10.80;99.90;;;;;;5112462;28;20023;-60
2021/10/19 05:02:49;;;;;;;59.45;29.83;;;10.80;99.90;;;;;;5094240;28;20046;-61
2021/10/19 05:05:16;;;;;;;50.65;29.20;;;10.70;99.90;;;;;;5091994;28;20111;-61
2021/10/19 05:07:42;;;;;;;54.00;27.83;;;10.70;99.90;;;;;;5091290;28;20038;-62
2021/10/19 05:10:08;;;;;;;54.90;29.35;;;10.70;99.90;;;;;;5091857;28;20388;-59
2021/10/19 05:12:34;;;;;;;60.38;28.67;;;10.70;99.90;;;;;;5092258;28;20396;-59
2021/10/19 05:14:59;;;;;;;68.88;30.75;;;10.80;99.90;;;;;;5091885;28;20037;-60
2021/10/19 05:17:25;;;;;;;59.95;29.60;;;10.70;99.90;;;;;;5091498;28;20138;-60
2021/10/19 05:19:51;;;;;;;60.00;29.55;;;10.80;99.90;;;;;;5091651;28;20077;-60
2021/10/19 05:22:16;;;;;;;58.28;27.73;;;10.80;99.90;;;;;;5091771;28;20078;-60
2021/10/19 05:24:43;;;;;;;57.90;28.73;;;10.80;99.90;;;;;;5091562;28;20032;-59
2021/10/19 05:27:08;;;;;;;52.38;28.88;;;10.80;99.90;;;;;;5090545;28;20036;-60
2021/10/19 05:29:34;;;;;;;61.78;28.30;;;10.80;99.90;;;;;;5091316;28;20035;-59
2021/10/19 05:31:59;;;;;;;64.22;28.58;;;10.80;99.90;;;;;;5091378;28;20028;-60
2021/10/19 05:34:25;;;;;;;62.63;27.83;;;10.80;99.90;;;;;;5091303;28;20020;-60
2021/10/19 05:36:51;;;;;;;50.72;27.23;;;10.90;99.90;;;;;;5091340;28;20473;-60
2021/10/19 05:39:18;;;;;;;152.50;70.97;;;10.80;99.90;;;;;;5091056;28;20028;-59
2021/10/19 05:41:44;;;;;;;73.03;39.00;;;10.90;99.90;;;;;;5091165;28;20036;-61
2021/10/19 05:44:10;;;;;;;55.08;29.95;;;10.90;99.90;;;;;;5091677;28;20432;-59
2021/10/19 05:46:35;;;;;;;66.28;32.20;;;10.90;99.90;;;;;;5091365;28;20057;-59
2021/10/19 05:49:01;;;;;;;55.08;28.25;;;10.90;99.90;;;;;;5090803;28;20028;-60
2021/10/19 05:51:26;;;;;;;52.05;27.50;;;10.90;99.90;;;;;;5091191;28;20024;-59
2021/10/19 05:53:52;;;;;;;49.42;24.98;;;10.90;99.90;;;;;;5091278;28;20055;-58
2021/10/19 05:56:17;;;;;;;52.70;25.98;;;11.00;99.90;;;;;;5091124;28;20052;-60
2021/10/19 05:58:43;;;;;;;50.20;25.38;;;11.00;99.90;;;;;;5090947;28;20447;-60
2021/10/19 06:01:09;;;;;;;40.55;23.48;;;11.00;99.90;;;;;;5095052;28;20016;-60
2021/10/19 06:03:34;;;;;;;46.80;25.30;;;11.00;99.90;;;;;;5112612;28;20027;-59
2021/10/19 06:06:00;;;;;;;40.85;23.25;;;11.00;99.90;;;;;;5111425;28;20031;-59
2021/10/19 06:08:25;;;;;;;38.60;21.50;;;11.00;99.90;;;;;;5110664;28;20036;-60
2021/10/19 06:10:55;;;;;;;43.58;24.58;;;11.00;99.90;;;;;;5111233;28;20088;-59
2021/10/19 06:13:20;;;;;;;52.88;23.70;;;11.00;99.90;;;;;;5111245;28;20532;-58
2021/10/19 06:15:46;;;;;;;32.80;20.63;;;11.00;99.90;;;;;;5111229;28;20031;-59
2021/10/19 06:18:12;;;;;;;40.47;22.17;;;11.00;99.90;;;;;;5110967;28;20423;-59
2021/10/19 06:20:38;;;;;;;38.97;21.50;;;11.00;99.90;;;;;;5111202;28;20099;-60
2021/10/19 06:23:04;;;;;;;39.65;22.00;;;11.00;99.90;;;;;;5111143;28;20100;-59
2021/10/19 06:25:29;;;;;;;38.38;20.45;;;11.10;99.90;;;;;;5111125;28;20019;-60
2021/10/19 06:27:55;;;;;;;41.80;20.70;;;11.10;99.90;;;;;;5110850;28;20051;-62
2021/10/19 06:30:20;;;;;;;35.58;21.13;;;11.10;99.90;;;;;;5110972;28;20032;-61
2021/10/19 06:32:46;;;;;;;34.75;21.70;;;11.20;99.90;;;;;;5111007;28;20028;-62
2021/10/19 06:35:11;;;;;;;34.47;19.75;;;11.20;99.90;;;;;;5111136;28;20557;-61
2021/10/19 06:37:38;;;;;;;40.80;19.52;;;11.20;99.90;;;;;;5110857;28;20028;-62
2021/10/19 06:40:06;;;;;;;35.72;19.98;;;11.20;99.90;;;;;;5114379;28;20098;-62
2021/10/19 06:42:33;;;;;;;29.48;18.00;;;11.20;99.90;;;;;;5115249;28;20043;-61
2021/10/19 06:45:00;;;;;;;27.67;18.48;;;11.30;99.90;;;;;;5115249;28;20095;-62
2021/10/19 06:47:29;;;;;;;29.05;17.75;;;11.30;99.90;;;;;;5114901;28;20034;-62
2021/10/19 06:49:55;;;;;;;27.67;16.83;;;11.30;99.90;;;;;;5115017;28;20400;-61
2021/10/19 06:52:20;;;;;;;25.42;16.02;;;11.40;99.90;;;;;;5115124;28;20027;-60
2021/10/19 06:54:46;;;;;;;29.48;17.38;;;11.40;99.90;;;;;;5114937;28;20399;-59
2021/10/19 06:57:12;;;;;;;28.70;17.13;;;11.40;99.90;;;;;;5114881;28;20472;-59
2021/10/19 06:59:37;;;;;;;32.60;17.23;;;11.40;99.90;;;;;;5114811;27;20437;-58
2021/10/19 07:02:03;;;;;;;26.17;16.23;;;11.40;99.90;;;;;;5103230;28;20066;-61
2021/10/19 07:04:29;;;;;;;32.17;16.55;;;11.40;99.90;;;;;;5094466;28;20505;-59
2021/10/19 07:06:54;;;;;;;21.48;14.32;;;11.50;99.90;;;;;;5094124;28;20032;-59
2021/10/19 07:09:20;;;;;;;18.77;14.10;;;11.50;99.90;;;;;;5093931;28;20020;-59
2021/10/19 07:11:46;;;;;;;19.60;13.27;;;11.50;99.90;;;;;;5094400;28;20290;-58
2021/10/19 07:14:11;;;;;;;26.02;14.82;;;11.50;99.90;;;;;;5094234;28;20024;-59
2021/10/19 07:16:37;;;;;;;23.15;14.30;;;11.50;99.90;;;;;;5094172;28;20477;-58
2021/10/19 07:19:06;;;;;;;21.67;13.85;;;11.60;99.90;;;;;;5093870;28;20042;-60
2021/10/19 07:21:32;;;;;;;20.77;13.00;;;11.60;99.90;;;;;;5093927;28;20023;-59
2021/10/19 07:23:57;;;;;;;18.30;11.38;;;11.70;99.90;;;;;;5094169;28;20400;-60
2021/10/19 07:26:23;;;;;;;18.88;12.07;;;11.80;99.90;;;;;;5093906;28;20028;-59
2021/10/19 07:28:48;;;;;;;16.67;10.32;;;11.80;99.90;;;;;;5093638;28;20024;-60
2021/10/19 07:31:14;;;;;;;15.35;10.48;;;11.90;99.90;;;;;;5093546;28;20063;-58
2021/10/19 07:33:39;;;;;;;14.25;9.85;;;11.90;99.90;;;;;;5093642;28;20203;-60
2021/10/19 07:36:05;;;;;;;14.35;10.48;;;11.90;99.90;;;;;;5093701;28;20032;-60
2021/10/19 07:38:31;;;;;;;17.98;9.95;;;12.00;99.90;;;;;;5093572;28;20033;-61
2021/10/19 07:40:56;;;;;;;13.35;9.82;;;12.00;99.90;;;;;;5093688;28;20066;-60
2021/10/19 07:43:22;;;;;;;15.45;10.23;;;12.00;99.90;;;;;;5093619;28;20048;-58
2021/10/19 07:45:47;;;;;;;13.45;9.18;;;12.10;99.90;;;;;;5093683;28;20114;-59
2021/10/19 07:48:13;;;;;;;14.52;8.95;;;12.20;99.90;;;;;;5093343;28;20028;-62
2021/10/19 07:50:38;;;;;;;13.40;9.35;;;12.20;99.90;;;;;;5092510;28;20020;-62
2021/10/19 07:53:04;;;;;;;11.77;8.40;;;12.20;99.90;;;;;;5093578;28;20028;-61
2021/10/19 07:55:33;;;;;;;10.85;8.05;;;12.30;99.90;;;;;;5093426;28;20550;-60
2021/10/19 07:57:59;;;;;;;15.38;7.28;;;12.30;99.90;;;;;;5093266;28;20020;-62
2021/10/19 08:00:28;;;;;;;9.88;7.57;;;12.30;99.90;;;;;;5093312;28;20037;-61
2021/10/19 08:02:54;;;;;;;8.20;6.97;;;12.40;99.90;;;;;;5112078;28;20031;-61
2021/10/19 08:05:20;;;;;;;9.23;7.13;;;12.40;99.90;;;;;;5113627;28;20110;-61
2021/10/19 08:07:48;;;;;;;10.27;7.88;;;12.40;99.90;;;;;;5113277;28;20107;-61
2021/10/19 08:10:22;;;;;;;9.68;7.53;;;12.40;99.90;;;;;;5113765;28;20031;-60
2021/10/19 08:12:48;;;;;;;;;;;12.40;99.90;;;;;;5114018;28;20016;-61
2021/10/19 08:15:14;;;;;;;9.10;6.97;;;12.40;99.90;;;;;;5113302;28;20292;-59
2021/10/19 08:17:40;;;;;;;9.05;6.75;;;12.40;99.90;;;;;;5113233;28;20496;-57
2021/10/19 08:20:07;;;;;;;9.23;7.13;;;12.40;99.90;;;;;;5113561;28;20532;-60
2021/10/19 08:22:33;;;;;;;8.68;7.15;;;12.50;99.90;;;;;;5113301;28;20450;-60
2021/10/19 08:25:05;;;;;;;8.00;6.88;;;12.50;99.90;;;;;;5113157;28;20116;-58
2021/10/19 08:27:31;;;;;;;11.20;7.07;;;12.60;99.90;;;;;;5113137;28;20024;-60
2021/10/19 08:29:57;;;;;;;7.78;6.10;;;12.60;99.90;;;;;;5112760;28;20050;-60
2021/10/19 08:32:22;;;;;;;8.50;6.40;;;12.60;99.90;;;;;;5112884;28;20028;-60
2021/10/19 08:34:48;;;;;;;7.55;5.40;;;12.60;99.90;;;;;;5113102;28;20024;-59
2021/10/19 08:37:14;;;;;;;8.98;6.88;;;12.70;99.90;;;;;;5112744;28;20098;-62
2021/10/19 08:39:40;;;;;;;8.15;7.00;;;12.70;99.90;;;;;;5113177;28;20414;-62
2021/10/19 08:42:06;;;;;;;7.55;5.43;;;12.80;99.90;;;;;;5112962;28;20460;-62
2021/10/19 08:44:32;;;;;;;9.43;5.85;;;12.80;99.90;;;;;;5112774;28;20045;-61
2021/10/19 08:46:58;;;;;;;8.30;5.60;;;12.80;99.90;;;;;;5112923;28;20024;-62
2021/10/19 08:49:24;;;;;;;8.57;6.30;;;12.90;99.90;;;;;;5112793;28;20373;-61
2021/10/19 08:51:49;;;;;;;7.85;6.18;;;12.90;99.90;;;;;;5112764;28;20077;-62
2021/10/19 08:54:16;;;;;;;6.93;5.07;;;12.90;99.90;;;;;;5112741;28;20094;-63
2021/10/19 08:56:42;;;;;;;7.05;5.68;;;12.90;99.90;;;;;;5112593;28;20054;-61
2021/10/19 08:59:09;;;;;;;5.20;4.35;;;13.00;99.90;;;;;;5112223;28;20072;-61
2021/10/19 09:01:38;;;;;;;8.98;4.82;;;12.90;99.90;;;;;;5104513;28;20133;-62
2021/10/19 09:04:12;;;;;;;5.78;4.65;;;13.00;99.90;;;;;;5091980;28;20036;-60
2021/10/19 09:06:40;;;;;;;5.53;4.15;;;13.00;99.90;;;;;;5091939;28;20055;-60
2021/10/19 09:09:07;;;;;;;8.05;4.55;;;13.10;99.90;;;;;;5090115;28;20056;-60
2021/10/19 09:11:44;;;;;;;7.65;4.82;;;13.10;99.90;;;;;;5091729;28;20103;-59
2021/10/19 09:14:10;;;;;;;5.60;4.10;;;13.20;99.90;;;;;;5091977;28;20069;-60
2021/10/19 09:16:41;;;;;;;5.00;4.28;;;13.30;99.90;;;;;;5091783;28;20036;-59
2021/10/19 09:19:09;;;;;;;4.30;3.80;;;13.50;99.90;;;;;;5091974;28;20042;-59
2021/10/19 09:21:35;;;;;;;4.25;3.85;;;13.80;99.90;;;;;;5091522;28;20485;-60
2021/10/19 09:24:27;;;;;;;4.30;3.75;;;14.00;99.90;;;;;;5091829;28;20032;-59
2021/10/19 09:26:59;;;;;;;4.28;3.17;;;14.20;99.90;;;;;;5091730;28;20450;-59
2021/10/19 09:29:26;;;;;;;7.93;3.25;;;14.20;99.90;;;;;;5091277;28;20024;-59
2021/10/19 09:31:57;;;;;;;7.80;3.15;;;14.30;99.90;;;;;;5091535;28;20065;-60
2021/10/19 09:34:26;;;;;;;3.15;2.70;;;14.30;99.90;;;;;;5091728;28;20385;-57
2021/10/19 09:36:52;;;;;;;3.80;3.20;;;14.30;99.90;;;;;;5091528;28;20044;-60
2021/10/19 09:39:41;;;;;;;4.07;2.97;;;14.40;99.90;;;;;;5091179;28;20453;-59
2021/10/19 09:42:10;;;;;;;4.88;3.20;;;14.50;99.90;;;;;;5091742;28;20122;-59
2021/10/19 09:44:36;;;;;;;3.65;3.10;;;14.50;99.90;;;;;;5091235;28;20035;-59
2021/10/19 09:47:03;;;;;;;4.13;3.10;;;14.50;99.90;;;;;;5091359;28;20238;-60
2021/10/19 09:49:30;;;;;;;3.50;3.00;;;14.50;99.90;;;;;;5091245;28;20039;-61
2021/10/19 09:52:00;;;;;;;4.53;3.70;;;14.50;99.90;;;;;;5091259;28;20061;-61
2021/10/19 09:54:29;;;;;;;3.83;3.08;;;14.70;99.90;;;;;;5091226;28;20047;-61
2021/10/19 09:56:57;;;;;;;4.95;2.88;;;14.70;99.90;;;;;;5091055;28;20016;-61
2021/10/19 09:59:23;;;;;;;4.53;3.17;;;14.70;99.90;;;;;;5090904;28;20030;-61
2021/10/19 10:01:50;;;;;;;3.08;2.75;;;14.70;99.90;;;;;;5100704;28;20032;-60
2021/10/19 10:04:15;;;;;;;3.80;3.35;;;14.80;99.90;;;;;;5111671;28;20031;-62
2021/10/19 10:06:42;;;;;;;4.07;3.38;;;14.60;99.90;;;;;;5111474;28;20024;-60
2021/10/19 10:09:08;;;;;;;4.20;3.38;;;14.70;99.90;;;;;;5110684;28;20020;-60
2021/10/19 10:11:38;;;;;;;4.85;3.55;;;14.60;99.90;;;;;;5111440;28;20020;-60
2021/10/19 10:14:04;;;;;;;4.35;3.72;;;14.60;99.90;;;;;;5110786;28;20515;-61
2021/10/19 10:16:40;;;;;;;4.53;4.07;;;14.50;99.90;;;;;;5111201;28;20027;-60
2021/10/19 10:19:34;;;;;;;7.10;4.53;;;14.50;99.90;;;;;;5111071;28;20024;-60
2021/10/19 10:22:13;;;;;;;6.40;4.68;;;14.50;99.90;;;;;;5108332;28;20089;-60
2021/10/19 10:24:40;;;;;;;8.07;4.78;;;14.60;99.90;;;;;;5111273;28;20110;-61
2021/10/19 10:27:24;;;;;;;6.30;4.40;;;14.50;99.90;;;;;;5111168;28;20118;-60
2021/10/19 10:29:49;;;;;;;6.05;4.53;;;14.50;99.90;;;;;;5111142;28;20482;-60
2021/10/19 10:32:29;;;;;;;6.47;5.15;;;14.50;99.90;;;;;;5111165;28;20091;-60
2021/10/19 10:35:10;;;;;;;6.85;5.47;;;14.40;99.90;;;;;;5111194;28;20073;-61
2021/10/19 10:37:37;;;;;;;8.60;4.15;;;14.40;99.90;;;;;;5110978;28;20047;-60
2021/10/19 10:40:08;;;;;;;6.43;4.22;;;14.40;99.90;;;;;;5111033;28;20032;-61
2021/10/19 10:42:39;;;;;;;5.38;4.65;;;14.30;99.90;;;;;;5110798;28;20562;-60
2021/10/19 10:45:29;;;;;;;9.40;6.20;;;14.40;99.90;;;;;;5110996;28;20035;-60
2021/10/19 10:48:00;;;;;;;7.47;5.60;;;14.40;99.90;;;;;;5100083;28;20148;-60
2021/10/19 10:50:28;;;;;;;5.72;5.13;;;14.40;99.90;;;;;;5111607;28;20046;-60
2021/10/19 10:53:13;;;;;;;7.95;5.20;;;14.50;99.90;;;;;;5112608;28;20026;-61
2021/10/19 10:55:44;;;;;;;8.15;4.88;;;14.50;99.90;;;;;;5112189;28;20451;-61
2021/10/19 10:58:20;;;;;;;7.47;4.88;;;14.50;99.90;;;;;;5112387;28;20042;-62
2021/10/19 11:00:46;;;;;;;6.50;4.80;;;14.50;99.90;;;;;;5109640;28;20161;-59
2021/10/19 11:03:14;;;;;;;8.95;6.60;;;14.50;99.90;;;;;;5090874;28;20489;-59
2021/10/19 11:06:00;;;;;;;5.97;4.93;;;14.50;99.90;;;;;;5090456;28;20540;-59
2021/10/19 11:08:29;;;;;;;8.65;6.20;;;14.50;99.90;;;;;;5090013;28;20072;-59
2021/10/19 11:11:08;;;;;;;7.20;5.80;;;14.50;99.90;;;;;;5090339;28;20021;-61
2021/10/19 11:13:58;;;;;;;8.00;6.28;;;14.50;99.90;;;;;;5090457;28;20016;-63
2021/10/19 11:16:27;;;;;;;8.27;5.47;;;14.50;99.90;;;;;;5090527;28;20020;-62
2021/10/19 11:18:54;;;;;;;12.43;8.23;;;14.60;99.90;;;;;;5090283;28;20054;-63
2021/10/19 11:21:20;;;;;;;12.05;8.25;;;14.60;99.90;;;;;;5090194;28;20449;-62
2021/10/19 11:23:48;;;;;;;10.40;5.82;;;14.60;99.90;;;;;;5090430;28;20043;-62
2021/10/19 11:26:13;;;;;;;8.77;5.78;;;14.80;99.90;;;;;;5092119;28;20058;-59
2021/10/19 11:28:43;;;;;;;7.00;4.50;;;15.00;99.90;;;;;;5093758;28;20024;-61
2021/10/19 11:31:11;;;;;;;8.68;5.10;;;15.20;99.90;;;;;;5093970;28;20082;-59
2021/10/19 11:33:46;;;;;;;8.27;4.78;;;15.20;99.90;;;;;;5094072;28;20023;-60
2021/10/19 11:36:13;;;;;;;15.77;9.07;;;15.20;99.90;;;;;;5093829;28;20016;-60
2021/10/19 11:38:51;;;;;;;6.20;4.97;;;15.10;99.90;;;;;;5093831;28;20024;-60
2021/10/19 11:41:19;;;;;;;6.15;4.97;;;15.20;99.90;;;;;;5093534;28;20451;-60
2021/10/19 11:43:51;;;;;;;6.38;5.22;;;15.30;99.90;;;;;;5093826;28;20028;-59
2021/10/19 11:46:28;;;;;;;7.60;4.95;;;15.40;99.90;;;;;;5093702;28;20035;-60
2021/10/19 11:48:56;;;;;;;6.38;4.25;;;15.50;99.90;;;;;;5093305;28;20114;-60
2021/10/19 11:51:23;;;;;;;10.68;6.03;;;15.80;99.90;;;;;;5093352;28;20076;-61
2021/10/19 11:53:53;;;;;;;5.32;3.53;;;15.90;99.90;;;;;;5093630;28;20043;-61
2021/10/19 11:56:20;;;;;;;4.40;3.60;;;16.00;99.90;;;;;;5093479;28;20490;-60
2021/10/19 11:59:07;;;;;;;7.18;4.25;;;16.20;99.90;;;;;;5093209;28;20432;-62
2021/10/19 12:01:42;;;;;;;6.05;3.55;;;16.40;99.90;;;;;;5100706;28;20020;-62
2021/10/19 12:04:13;;;;;;;4.80;3.90;;;16.50;99.90;;;;;;5113948;28;20032;-59
2021/10/19 12:06:47;;;;;;;4.88;4.07;;;16.60;99.90;;;;;;5118151;22;20114;-59
2021/10/19 12:09:21;;;;;;;4.82;3.42;;;16.70;99.90;;;;;;5091437;28;20108;-61
2021/10/19 12:11:58;;;;;;;4.57;3.63;;;16.70;99.90;;;;;;5093154;28;20027;-59
2021/10/19 12:14:27;;;;;;;5.22;3.28;;;16.70;99.90;;;;;;5093237;28;20115;-59
2021/10/19 12:16:54;;;;;;;3.75;3.33;;;16.70;99.90;;;;;;5092922;28;20444;-60
2021/10/19 12:19:20;;;;;;;5.28;3.60;;;16.70;99.90;;;;;;5092700;28;20020;-59
2021/10/19 12:21:56;;;;;;;5.47;3.50;;;16.90;99.90;;;;;;5093099;28;20035;-58
2021/10/19 12:24:22;;;;;;;6.40;3.38;;;16.90;99.90;;;;;;5092865;28;20027;-59
2021/10/19 12:26:58;;;;;;;4.93;3.20;;;16.90;99.90;;;;;;5092739;28;20023;-59
2021/10/19 12:29:23;;;;;;;6.57;3.50;;;16.90;99.90;;;;;;5092577;28;20032;-59
2021/10/19 12:31:49;;;;;;;5.68;3.53;;;17.00;99.90;;;;;;5092757;28;20088;-58
2021/10/19 12:34:15;;;;;;;5.95;3.40;;;17.20;99.90;;;;;;5092766;28;20426;-59
2021/10/19 12:36:42;;;;;;;4.10;3.03;;;17.20;99.90;;;;;;5092219;28;20020;-58